Aeroporto :
LOGIN :

Iscrizione | Disclaimer

   EN    FR    IT 

 










Sommario :    VFR   VFR Marginale   IFR   IFR Intensivo   IFR Molto Intensivo
Visibilità : 
Base nubi : 
>= 8 km
>= 3000ft
5 / 8 km
1000 / 3000 ft
1500m / 5 km
500 / 1000 ft
800 / 1500m
200 / 500 ft
< 800m
< 200 ft
Simboli :   Temporali  Nebbia  Neve Forte  Precipitazioni Forti  Vento > 20 kt
SIGMETs :   Varie  Temporali  Ghiacco  Turbolenza  Onda orograficha  Ceneri Vulcaniche






- Altitudine del aeroporto : 53 ft
- Codice IATA : HAM


EDDH - Hamburg

ULTIMO METAR :
  • 211750Z 20017KT 170V230 9999 FEW035 BKN045 08/01 Q0990 TEMPO 20015G25KT

METARs OBSOLETI :
  • 211720Z 20018KT 9999 FEW034 SCT046 07/01 Q0990 TEMPO 20015G25KT
  • 211650Z 19018KT 9999 FEW034 07/01 Q0990 NOSIG
  • 211620Z 20017G28KT 9999 FEW034 08/01 Q0990 NOSIG
  • 211550Z 20017KT 9999 FEW035 BKN048 08/01 Q0990 TEMPO 19020G30KT

TAF TAF EDDH
Valido dal 21 a 18 ore il 23 a 00 ore UTC


211700Z 2118/2224 20015G25KT 9999 SCT025 BKN035
BECMG 2118/2120 17010KT
BECMG 2200/2202 18015G25KT
TEMPO 2203/2206 20020G30KT
PROB30
TEMPO 2204/2206 23025G45KT RA BKN013
BECMG 2204/2206 29010KT
BECMG 2206/2208 23012KT
PROB30
TEMPO 2206/2208 BKN014
TEMPO 2210/2214 24015G25KT
BECMG 2215/2217 23006KT



MetMap, La meteo Aeronautica in un colpo d'occhio ! - Copyright ORBIFLY Dicembre 2007 - Disclaimer

ORBIFLY MET'MAP TEAM :

Programmazione e sviluppo : Alexandra Zaïnal
Concezione : Baudouin d'Aumeries
Aiuto per la programmazione : Marc-Olivier Méhu
Supporto tecnico e logistico : Manuel Goepfert
Aiuto per la traduzione : Arnaldo La Scala

Contatto : metmap@orbifly.com




FONTI E CREDITI :

   NOAA